createdAt,value
2022-11-08T00:00:43.827Z,5.37
2022-11-08T00:03:11.623Z,6.00
2022-11-08T00:05:57.862Z,5.50
2022-11-08T00:08:44.251Z,6.50
2022-11-08T00:11:30.279Z,5.07
2022-11-08T00:13:58.933Z,5.15
2022-11-08T00:16:27.455Z,5.33
2022-11-08T00:18:54.888Z,5.50
2022-11-08T00:21:22.588Z,5.87
2022-11-08T00:23:50.082Z,5.43
2022-11-08T00:26:17.494Z,5.55
2022-11-08T00:28:45.473Z,5.73
2022-11-08T00:31:12.976Z,6.45
2022-11-08T00:33:40.384Z,5.70
2022-11-08T00:36:08.354Z,6.45
2022-11-08T00:38:35.844Z,6.22
2022-11-08T00:41:03.238Z,6.57
2022-11-08T00:43:30.915Z,6.00
2022-11-08T00:45:58.382Z,6.37
2022-11-08T00:48:25.915Z,6.20
2022-11-08T00:50:53.765Z,6.40
2022-11-08T00:53:21.221Z,6.00
2022-11-08T00:55:48.735Z,6.47
2022-11-08T00:58:16.689Z,6.78
2022-11-08T01:00:44.371Z,6.78
2022-11-08T01:03:20.580Z,6.82
2022-11-08T01:05:49.324Z,7.73
2022-11-08T01:08:17.945Z,7.15
2022-11-08T01:10:49.817Z,7.10
2022-11-08T01:13:18.383Z,7.30
2022-11-08T01:15:46.176Z,7.95
2022-11-08T01:18:16.197Z,7.33
2022-11-08T01:20:45.237Z,8.13
2022-11-08T01:23:13.828Z,7.47
2022-11-08T01:25:42.978Z,8.15
2022-11-08T01:28:11.913Z,7.55
2022-11-08T01:30:40.523Z,8.13
2022-11-08T01:33:08.373Z,8.32
2022-11-08T01:35:36.714Z,8.32
2022-11-08T01:38:05.591Z,7.93
2022-11-08T01:40:34.283Z,7.85
2022-11-08T01:43:30.858Z,7.07
2022-11-08T01:46:01.160Z,7.82
2022-11-08T01:48:29.293Z,8.05
2022-11-08T01:50:59.243Z,8.20
2022-11-08T01:53:27.951Z,8.85
2022-11-08T01:55:56.552Z,9.07
2022-11-08T01:58:26.896Z,8.40
2022-11-08T02:00:54.487Z,8.35
2022-11-08T02:03:22.289Z,8.13
2022-11-08T02:05:49.729Z,8.05
2022-11-08T02:08:25.480Z,8.17
2022-11-08T02:10:53.575Z,7.93
2022-11-08T02:13:23.912Z,8.23
2022-11-08T02:15:51.721Z,8.73
2022-11-08T02:18:21.066Z,7.57
2022-11-08T02:21:29.892Z,8.83
2022-11-08T02:24:00.136Z,8.30
2022-11-08T02:26:32.598Z,8.23
2022-11-08T02:29:25.882Z,8.27
2022-11-08T02:31:53.772Z,8.77
2022-11-08T02:34:25.027Z,8.50
2022-11-08T02:36:52.500Z,8.77
2022-11-08T02:39:19.904Z,9.05
2022-11-08T02:41:47.664Z,8.52
2022-11-08T02:44:15.098Z,9.00
2022-11-08T02:46:42.664Z,8.93
2022-11-08T02:49:10.551Z,8.23
2022-11-08T02:51:38.455Z,10.32
2022-11-08T02:54:05.947Z,9.32
2022-11-08T02:56:33.677Z,8.85
2022-11-08T02:59:01.186Z,8.67
2022-11-08T03:01:28.626Z,8.43
2022-11-08T03:03:56.399Z,8.30
2022-11-08T03:06:23.825Z,8.80
2022-11-08T03:08:51.264Z,9.05
2022-11-08T03:11:18.977Z,9.30
2022-11-08T03:13:46.347Z,9.90
2022-11-08T03:16:13.766Z,9.95
2022-11-08T03:18:41.411Z,9.52
2022-11-08T03:21:08.820Z,10.25
2022-11-08T03:23:36.403Z,9.60
2022-11-08T03:26:05.190Z,10.18
2022-11-08T03:28:32.683Z,10.00
2022-11-08T03:31:00.112Z,10.73
2022-11-08T03:33:27.997Z,10.00
2022-11-08T03:35:55.796Z,9.50
2022-11-08T03:38:23.226Z,10.15
2022-11-08T03:40:51.078Z,9.68
2022-11-08T03:43:18.688Z,10.45
2022-11-08T03:45:46.614Z,9.52
2022-11-08T03:48:14.652Z,9.33
2022-11-08T03:50:42.292Z,9.98
2022-11-08T03:53:09.699Z,9.90
2022-11-08T03:55:37.382Z,9.23
2022-11-08T03:58:04.842Z,9.52
2022-11-08T04:00:32.246Z,8.50
2022-11-08T04:03:03.995Z,8.88
2022-11-08T04:05:32.479Z,9.57
2022-11-08T04:08:01.486Z,9.38
2022-11-08T04:10:29.021Z,9.23
2022-11-08T04:13:18.198Z,9.63
2022-11-08T04:15:47.144Z,9.35
2022-11-08T04:18:33.326Z,8.93
2022-11-08T04:21:19.382Z,8.85
2022-11-08T04:23:47.972Z,10.02
2022-11-08T04:26:15.853Z,8.97
2022-11-08T04:28:43.468Z,8.63
2022-11-08T04:31:16.925Z,9.32
2022-11-08T04:33:44.815Z,8.77
2022-11-08T04:36:14.633Z,9.02
2022-11-08T04:38:42.079Z,8.77
2022-11-08T04:41:14.879Z,9.10
2022-11-08T04:43:42.330Z,8.93
2022-11-08T04:46:14.818Z,8.57
2022-11-08T04:48:43.366Z,8.35
2022-11-08T04:51:23.114Z,8.40
2022-11-08T04:53:50.617Z,7.80
2022-11-08T04:56:20.651Z,8.07
2022-11-08T04:58:51.334Z,8.57
2022-11-08T05:01:20.985Z,8.55
2022-11-08T05:03:49.791Z,7.10
2022-11-08T05:06:20.326Z,7.25
2022-11-08T05:08:49.139Z,8.02
2022-11-08T05:11:19.609Z,8.55
2022-11-08T05:13:47.392Z,10.65
2022-11-08T05:16:17.904Z,9.37
2022-11-08T05:18:45.390Z,8.55
2022-11-08T05:21:33.538Z,8.13
2022-11-08T05:24:02.325Z,8.15
2022-11-08T05:26:30.842Z,8.15
2022-11-08T05:28:58.283Z,7.87
2022-11-08T05:31:26.454Z,7.62
2022-11-08T05:33:53.926Z,8.00
2022-11-08T05:36:21.382Z,9.23
2022-11-08T05:38:49.124Z,8.15
2022-11-08T05:41:22.807Z,9.87
2022-11-08T05:43:53.026Z,10.45
2022-11-08T05:46:22.544Z,9.85
2022-11-08T05:48:50.926Z,9.73
2022-11-08T05:51:19.245Z,10.43
2022-11-08T05:53:49.662Z,10.23
2022-11-08T05:56:18.011Z,10.52
2022-11-08T05:58:45.776Z,9.57
2022-11-08T06:01:15.998Z,9.48
2022-11-08T06:03:44.071Z,9.13
2022-11-08T06:06:14.598Z,9.53
2022-11-08T06:08:47.516Z,9.98
2022-11-08T06:11:21.608Z,10.15
2022-11-08T06:13:49.585Z,11.50
2022-11-08T06:16:18.183Z,11.82
2022-11-08T06:18:46.086Z,13.43
2022-11-08T06:21:15.807Z,14.30
2022-11-08T06:23:43.538Z,14.75
2022-11-08T06:26:11.518Z,13.93
2022-11-08T06:28:39.110Z,12.57
2022-11-08T06:31:06.640Z,13.17
2022-11-08T06:33:34.390Z,14.90
2022-11-08T06:36:01.761Z,14.13
2022-11-08T06:38:29.339Z,12.82
2022-11-08T06:41:00.962Z,13.32
2022-11-08T06:43:28.704Z,13.93
2022-11-08T06:46:00.418Z,11.80
2022-11-08T06:48:33.967Z,12.48
2022-11-08T06:51:03.918Z,12.82
2022-11-08T06:53:32.193Z,12.13
2022-11-08T06:56:00.665Z,13.07
2022-11-08T06:58:28.667Z,12.37
2022-11-08T07:00:56.424Z,13.55
2022-11-08T07:03:23.836Z,13.98
2022-11-08T07:05:51.432Z,12.30
2022-11-08T07:08:23.547Z,11.67
2022-11-08T07:10:51.370Z,11.55
2022-11-08T07:13:19.682Z,11.95
2022-11-08T07:15:53.487Z,12.30
2022-11-08T07:18:21.526Z,12.25
2022-11-08T07:20:49.063Z,11.50
2022-11-08T07:23:16.540Z,11.75
2022-11-08T07:25:44.271Z,11.60
2022-11-08T07:28:17.182Z,11.55
2022-11-08T07:30:46.119Z,11.60
2022-11-08T07:33:15.701Z,12.13
2022-11-08T07:35:46.149Z,11.18
2022-11-08T07:38:14.091Z,10.75
2022-11-08T07:40:41.869Z,10.68
2022-11-08T07:43:12.224Z,10.48
2022-11-08T07:45:41.606Z,10.30
2022-11-08T07:48:12.640Z,10.73
2022-11-08T07:50:43.262Z,10.43
2022-11-08T07:53:11.262Z,9.63
2022-11-08T07:55:40.003Z,10.48
2022-11-08T07:58:08.897Z,10.10
2022-11-08T08:00:38.374Z,10.63
2022-11-08T08:03:07.668Z,10.40
2022-11-08T08:05:37.978Z,9.82
2022-11-08T08:08:06.287Z,10.00
2022-11-08T08:10:34.820Z,9.40
2022-11-08T08:13:02.580Z,10.75
2022-11-08T08:15:30.297Z,9.82
2022-11-08T08:18:00.014Z,9.80
2022-11-08T08:20:27.886Z,10.02
2022-11-08T08:22:55.587Z,8.40
2022-11-08T08:25:23.255Z,9.25
2022-11-08T08:27:52.876Z,8.85
2022-11-08T08:30:21.290Z,9.73
2022-11-08T08:33:02.175Z,9.70
2022-11-08T08:35:36.917Z,10.93
2022-11-08T08:38:05.703Z,11.27
2022-11-08T08:40:33.919Z,10.55
2022-11-08T08:43:03.509Z,10.25
2022-11-08T08:45:31.958Z,11.70
2022-11-08T08:47:59.738Z,11.47
2022-11-08T08:50:29.911Z,11.00
2022-11-08T08:53:02.069Z,12.02
2022-11-08T08:55:30.723Z,11.10
2022-11-08T08:57:58.592Z,8.52
2022-11-08T09:03:14.287Z,9.40
2022-11-08T09:05:43.974Z,9.85
2022-11-08T09:08:11.886Z,9.35
2022-11-08T09:10:40.190Z,9.90
2022-11-08T09:13:07.617Z,8.83
2022-11-08T09:15:35.044Z,8.40
2022-11-08T09:18:03.369Z,7.90
2022-11-08T09:20:30.827Z,7.47
2022-11-08T09:23:02.764Z,7.78
2022-11-08T09:25:30.611Z,7.90
2022-11-08T09:27:58.129Z,8.32
2022-11-08T09:30:26.741Z,8.60
2022-11-08T09:33:00.701Z,8.98
2022-11-08T09:35:29.356Z,7.43
2022-11-08T09:37:58.001Z,8.37
2022-11-08T09:40:37.448Z,7.65
2022-11-08T09:43:33.707Z,7.57
2022-11-08T09:46:01.214Z,7.93
2022-11-08T09:48:37.704Z,8.73
2022-11-08T09:51:14.480Z,7.63
2022-11-08T09:53:55.424Z,8.18
2022-11-08T09:56:31.843Z,7.50
2022-11-08T09:59:02.604Z,8.65
2022-11-08T10:01:32.689Z,9.30
2022-11-08T10:04:05.694Z,8.43
2022-11-08T10:07:02.477Z,9.50
2022-11-08T10:09:53.922Z,9.18
2022-11-08T10:12:27.003Z,9.00
2022-11-08T10:15:13.121Z,9.20
2022-11-08T10:18:03.731Z,9.03
2022-11-08T10:21:00.876Z,8.75
2022-11-08T10:23:45.061Z,8.45
2022-11-08T10:26:25.708Z,8.70
2022-11-08T10:29:06.883Z,9.35
2022-11-08T10:31:35.677Z,8.33
2022-11-08T10:34:11.366Z,8.40
2022-11-08T10:36:45.605Z,8.43
2022-11-08T10:39:25.871Z,8.35
2022-11-08T10:42:21.767Z,7.32
2022-11-08T10:44:49.233Z,7.90
2022-11-08T10:47:24.599Z,7.75
2022-11-08T10:49:57.207Z,8.10
2022-11-08T10:52:44.772Z,8.30
2022-11-08T10:55:30.537Z,7.35
2022-11-08T10:57:58.395Z,9.00
2022-11-08T11:00:28.178Z,9.43
2022-11-08T11:02:58.564Z,8.75
2022-11-08T11:05:30.171Z,8.80
2022-11-08T11:08:02.013Z,9.43
2022-11-08T11:10:38.855Z,8.00
2022-11-08T11:13:19.685Z,7.70
2022-11-08T11:15:57.325Z,9.35
2022-11-08T11:18:47.475Z,7.90
2022-11-08T11:21:17.067Z,9.40
2022-11-08T11:23:50.308Z,8.53
2022-11-08T11:26:27.650Z,9.60
2022-11-08T11:29:05.614Z,8.65
2022-11-08T11:31:35.267Z,9.48
2022-11-08T11:34:18.059Z,9.70
2022-11-08T11:36:50.121Z,10.03
2022-11-08T11:39:28.693Z,9.85
2022-11-08T11:42:45.256Z,11.05
2022-11-08T11:45:20.489Z,11.70
2022-11-08T11:47:54.445Z,12.77
2022-11-08T11:50:38.172Z,12.17
2022-11-08T11:53:18.785Z,12.05
2022-11-08T11:56:17.696Z,13.25
2022-11-08T11:59:04.266Z,13.20
2022-11-08T12:01:48.973Z,12.40
2022-11-08T12:04:42.887Z,12.53
2022-11-08T12:07:22.514Z,12.60
2022-11-08T12:10:23.342Z,11.63
2022-11-08T12:13:08.696Z,12.57
2022-11-08T12:15:54.295Z,12.95
2022-11-08T12:18:43.128Z,13.43
2022-11-08T12:21:18.277Z,13.05
2022-11-08T12:24:03.755Z,14.90
2022-11-08T12:26:53.578Z,15.45
2022-11-08T12:29:25.414Z,14.40
2022-11-08T12:32:14.325Z,15.53
2022-11-08T12:35:12.436Z,14.15
2022-11-08T12:37:46.238Z,15.05
2022-11-08T12:40:45.005Z,14.05
2022-11-08T12:43:36.045Z,14.32
2022-11-08T12:46:18.477Z,14.27
2022-11-08T12:49:04.610Z,15.48
2022-11-08T12:51:56.989Z,16.33
2022-11-08T12:54:33.856Z,15.32
2022-11-08T12:57:04.730Z,16.50
2022-11-08T12:59:40.098Z,16.50
2022-11-08T13:02:30.779Z,15.73
2022-11-08T13:05:09.266Z,14.45
2022-11-08T13:08:09.131Z,15.05
2022-11-08T13:10:55.537Z,15.30
2022-11-08T13:13:32.041Z,15.57
2022-11-08T13:16:16.547Z,14.90
2022-11-08T13:18:47.289Z,15.50
2022-11-08T13:21:30.282Z,17.00
2022-11-08T13:24:24.369Z,15.68
2022-11-08T13:27:33.568Z,14.87
2022-11-08T13:30:25.302Z,15.73
2022-11-08T13:33:16.601Z,15.55
2022-11-08T13:35:52.949Z,15.70
2022-11-08T13:38:39.025Z,14.70
2022-11-08T13:41:11.847Z,15.23
2022-11-08T13:43:39.676Z,14.35
2022-11-08T13:46:29.512Z,14.85
2022-11-08T13:49:06.408Z,15.70
2022-11-08T13:51:35.655Z,17.83
2022-11-08T13:54:21.740Z,17.33
2022-11-08T13:56:50.601Z,21.20
2022-11-08T13:59:30.415Z,21.35
2022-11-08T14:01:58.008Z,21.58
2022-11-08T14:04:41.688Z,20.85
2022-11-08T14:07:13.547Z,18.10
2022-11-08T14:09:52.693Z,18.35
2022-11-08T14:12:35.861Z,17.00
2022-11-08T14:15:12.825Z,17.33
2022-11-08T14:18:01.311Z,18.08
2022-11-08T14:20:48.160Z,17.10
2022-11-08T14:23:19.014Z,16.90
2022-11-08T14:25:48.660Z,17.67
2022-11-08T14:28:32.419Z,17.62
2022-11-08T14:31:02.546Z,17.35
2022-11-08T14:33:31.729Z,17.80
2022-11-08T14:36:04.853Z,18.00
2022-11-08T14:38:35.931Z,18.67
2022-11-08T14:41:05.731Z,16.98
2022-11-08T14:43:43.675Z,17.87
2022-11-08T14:46:16.572Z,17.23
2022-11-08T14:48:55.043Z,16.33
2022-11-08T14:51:23.490Z,16.37
2022-11-08T14:53:53.706Z,15.63
2022-11-08T14:56:23.038Z,16.60
2022-11-08T14:58:53.282Z,16.77
2022-11-08T15:01:23.180Z,16.70
2022-11-08T15:04:00.892Z,16.92
2022-11-08T15:06:34.108Z,15.82
2022-11-08T15:09:02.980Z,16.73
2022-11-08T15:11:34.857Z,15.60
2022-11-08T15:14:05.340Z,17.40
2022-11-08T15:16:44.561Z,18.52
2022-11-08T15:19:39.328Z,17.17
2022-11-08T15:22:32.740Z,17.27
2022-11-08T15:25:29.649Z,18.43
2022-11-08T15:27:59.006Z,17.30
2022-11-08T15:30:30.344Z,16.12
2022-11-08T15:32:58.073Z,17.75
2022-11-08T15:35:39.290Z,17.52
2022-11-08T15:38:34.377Z,18.00
2022-11-08T15:41:04.611Z,16.90
2022-11-08T15:43:32.563Z,15.88
2022-11-08T15:46:01.509Z,17.23
2022-11-08T15:48:29.869Z,16.65
2022-11-08T15:51:01.245Z,17.17
2022-11-08T15:53:29.309Z,17.25
2022-11-08T15:56:01.261Z,15.10
2022-11-08T15:58:36.335Z,15.40
2022-11-08T16:01:06.012Z,15.85
2022-11-08T16:03:34.796Z,16.43
2022-11-08T16:06:02.804Z,17.35
2022-11-08T16:08:30.579Z,17.08
2022-11-08T16:11:00.230Z,17.02
2022-11-08T16:13:39.014Z,15.57
2022-11-08T16:16:11.972Z,17.33
2022-11-08T16:18:41.266Z,16.40
2022-11-08T16:21:11.212Z,16.90
2022-11-08T16:23:40.760Z,16.40
2022-11-08T16:26:14.574Z,17.27
2022-11-08T16:28:43.141Z,17.00
2022-11-08T16:31:16.039Z,17.00
2022-11-08T16:33:46.587Z,16.55
2022-11-08T16:36:16.687Z,15.82
2022-11-08T16:38:57.692Z,17.25
2022-11-08T16:41:26.071Z,16.50
2022-11-08T16:43:55.266Z,16.75
2022-11-08T16:46:23.345Z,16.60
2022-11-08T16:48:58.466Z,16.98
2022-11-08T16:51:26.894Z,16.95
2022-11-08T16:53:55.175Z,17.33
2022-11-08T16:56:23.496Z,16.37
2022-11-08T16:58:51.433Z,17.00
2022-11-08T17:01:22.422Z,17.00
2022-11-08T17:03:51.195Z,17.08
2022-11-08T17:06:19.388Z,17.17
2022-11-08T17:08:47.588Z,17.90
2022-11-08T17:11:17.126Z,17.65
2022-11-08T17:13:45.371Z,16.62
2022-11-08T17:16:13.923Z,17.12
2022-11-08T17:18:41.951Z,17.73
2022-11-08T17:21:38.308Z,17.40
2022-11-08T17:24:00.243Z,16.95
2022-11-08T17:26:28.395Z,18.98
2022-11-08T17:28:56.577Z,17.90
2022-11-08T17:31:24.843Z,17.93
2022-11-08T17:33:54.950Z,17.90
2022-11-08T17:36:23.077Z,20.48
2022-11-08T17:38:50.887Z,19.90
2022-11-08T17:41:18.831Z,18.25
2022-11-08T17:43:46.723Z,18.93
2022-11-08T17:46:15.015Z,20.35
2022-11-08T17:48:43.211Z,20.67
2022-11-08T17:51:13.130Z,19.73
2022-11-08T17:53:41.507Z,20.25
2022-11-08T17:56:11.536Z,19.17
2022-11-08T17:58:40.884Z,20.00
2022-11-08T18:01:09.017Z,19.83
2022-11-08T18:03:37.139Z,20.48
2022-11-08T18:06:09.736Z,20.00
2022-11-08T18:08:37.896Z,20.20
2022-11-08T18:11:06.652Z,22.10
2022-11-08T18:13:37.896Z,21.23
2022-11-08T18:16:14.120Z,20.02
2022-11-08T18:18:42.494Z,21.98
2022-11-08T18:21:12.651Z,22.03
2022-11-08T18:23:41.620Z,21.80
2022-11-08T18:26:09.911Z,22.20
2022-11-08T18:28:38.784Z,22.25
2022-11-08T18:31:11.228Z,22.05
2022-11-08T18:33:40.223Z,21.73
2022-11-08T18:36:12.637Z,23.55
2022-11-08T18:38:44.675Z,22.83
2022-11-08T18:41:15.059Z,21.25
2022-11-08T18:43:43.554Z,23.35
2022-11-08T18:46:14.300Z,23.20
2022-11-08T18:48:42.578Z,23.15
2022-11-08T18:51:12.726Z,23.12
2022-11-08T18:53:43.744Z,22.65
2022-11-08T18:56:12.752Z,22.80
2022-11-08T18:58:41.115Z,24.43
2022-11-08T19:01:11.530Z,23.25
2022-11-08T19:03:40.082Z,23.85
2022-11-08T19:06:08.559Z,22.70
2022-11-08T19:08:36.997Z,22.85
2022-11-08T19:11:09.530Z,22.67
2022-11-08T19:13:40.239Z,22.60
2022-11-08T19:16:13.109Z,21.42
2022-11-08T19:18:42.305Z,23.02
2022-11-08T19:21:24.936Z,22.15
2022-11-08T19:23:57.194Z,21.67
2022-11-08T19:26:27.752Z,22.02
2022-11-08T19:29:01.208Z,21.95
2022-11-08T19:31:29.539Z,21.87
2022-11-08T19:33:57.548Z,22.35
2022-11-08T19:36:27.278Z,21.60
2022-11-08T19:38:56.881Z,22.50
2022-11-08T19:41:26.839Z,23.23
2022-11-08T19:43:55.186Z,21.15
2022-11-08T19:46:28.887Z,21.55
2022-11-08T19:48:57.414Z,22.10
2022-11-08T19:51:28.150Z,21.70
2022-11-08T19:53:58.765Z,22.75
2022-11-08T19:56:50.143Z,22.40
2022-11-08T19:59:15.166Z,22.25
2022-11-08T20:01:43.402Z,23.93
2022-11-08T20:04:12.422Z,22.50
2022-11-08T20:06:40.491Z,24.05
2022-11-08T20:09:09.423Z,25.02
2022-11-08T20:11:40.189Z,23.25
2022-11-08T20:14:09.229Z,24.73
2022-11-08T20:16:40.928Z,24.65
2022-11-08T20:19:12.799Z,22.70
2022-11-08T20:21:42.528Z,23.00
2022-11-08T20:24:11.002Z,23.33
2022-11-08T20:26:41.412Z,22.83
2022-11-08T20:29:09.961Z,23.67
2022-11-08T20:31:38.816Z,24.02
2022-11-08T20:34:10.378Z,24.17
2022-11-08T20:36:43.940Z,22.60
2022-11-08T20:39:14.089Z,24.00
2022-11-08T20:41:42.328Z,23.83
2022-11-08T20:44:10.523Z,24.75
2022-11-08T20:46:38.487Z,25.02
2022-11-08T20:49:07.261Z,24.17
2022-11-08T20:51:35.841Z,23.47
2022-11-08T20:54:03.944Z,25.50
2022-11-08T20:56:33.354Z,24.17
2022-11-08T20:59:01.752Z,26.55
2022-11-08T21:01:32.701Z,25.92
2022-11-08T21:04:01.214Z,25.23
2022-11-08T21:06:32.969Z,25.40
2022-11-08T21:09:20.855Z,26.45
2022-11-08T21:11:53.648Z,26.55
2022-11-08T21:14:23.702Z,26.27
2022-11-08T21:17:20.281Z,26.07
2022-11-08T21:19:40.428Z,26.55
2022-11-08T21:22:17.213Z,26.73
2022-11-08T21:24:47.241Z,26.10
2022-11-08T21:27:15.497Z,26.98
2022-11-08T21:29:43.597Z,26.47
2022-11-08T21:32:11.609Z,27.05
2022-11-08T21:34:45.409Z,26.67
2022-11-08T21:37:13.992Z,27.48
2022-11-08T21:39:42.054Z,27.13
2022-11-08T21:42:09.785Z,26.87
2022-11-08T21:44:37.655Z,28.05
2022-11-08T21:47:05.191Z,29.23
2022-11-08T21:49:32.784Z,27.98
2022-11-08T21:52:00.631Z,28.45
2022-11-08T21:54:28.301Z,27.07
2022-11-08T21:56:55.824Z,26.12
2022-11-08T21:59:23.628Z,27.85
2022-11-08T22:01:51.099Z,26.98
2022-11-08T22:04:18.864Z,26.85
2022-11-08T22:06:47.887Z,26.23
2022-11-08T22:09:15.769Z,25.85
2022-11-08T22:11:45.204Z,27.05
2022-11-08T22:14:12.751Z,26.77
2022-11-08T22:16:40.259Z,26.48
2022-11-08T22:19:08.471Z,25.70
2022-11-08T22:21:39.501Z,26.45
2022-11-08T22:24:18.019Z,26.73
2022-11-08T22:26:46.627Z,27.55
2022-11-08T22:29:15.887Z,26.80
2022-11-08T22:31:43.595Z,26.00
2022-11-08T22:34:11.802Z,27.45
2022-11-08T22:36:44.870Z,26.67
2022-11-08T22:39:18.179Z,27.23
2022-11-08T22:41:47.177Z,25.50
2022-11-08T22:44:15.414Z,25.50
2022-11-08T22:46:44.610Z,26.55
2022-11-08T22:49:13.503Z,27.27
2022-11-08T22:51:41.358Z,28.38
2022-11-08T22:54:09.336Z,26.20
2022-11-08T22:56:37.361Z,27.80
2022-11-08T22:59:05.235Z,25.37
2022-11-08T23:01:32.954Z,27.25
2022-11-08T23:04:00.786Z,26.83
2022-11-08T23:06:28.466Z,26.20
2022-11-08T23:08:56.026Z,26.93
2022-11-08T23:11:42.498Z,25.80
2022-11-08T23:14:49.051Z,27.17
2022-11-08T23:17:16.910Z,26.02
2022-11-08T23:20:04.276Z,25.83
2022-11-08T23:22:51.555Z,25.47
2022-11-08T23:25:19.076Z,24.00
2022-11-08T23:28:05.385Z,26.73
2022-11-08T23:30:51.563Z,23.80
2022-11-08T23:33:19.506Z,25.73
2022-11-08T23:36:05.739Z,23.50
2022-11-08T23:38:33.626Z,24.63
2022-11-08T23:41:19.835Z,24.15
2022-11-08T23:44:06.159Z,23.77
2022-11-08T23:46:33.732Z,24.37
2022-11-08T23:49:02.575Z,23.47
2022-11-08T23:51:30.375Z,23.52
2022-11-08T23:53:57.819Z,23.40
2022-11-08T23:56:27.375Z,25.17
2022-11-08T23:58:57.243Z,23.67
